Time;durP1;ratioP1;P1;durP2;ratioP2;P2;SDS_P1;SDS_P2;PMS_P1;PMS_P2;Temp;Humidity;BMP_temperature;BMP_pressure;BME280_temperature;BME280_humidity;BME280_pressure;Samples;Min_cycle;Max_cycle;Signal;HPM_P1;HPM_P2
2022/01/04 00:00:46;;;;;;;4.33;1.40;;;11.40;86.80;;;;;;4954942;28;20650;-73
2022/01/04 00:03:12;;;;;;;4.17;1.63;;;11.40;86.90;;;;;;4957854;28;20222;-73
2022/01/04 00:05:39;;;;;;;3.43;1.33;;;11.40;87.10;;;;;;4951085;28;20184;-73
2022/01/04 00:08:08;;;;;;;4.10;1.43;;;11.40;87.30;;;;;;4952364;28;20419;-73
2022/01/04 00:10:35;;;;;;;2.27;1.60;;;11.40;87.30;;;;;;4953534;28;20455;-74
2022/01/04 00:15:45;;;;;;;2.10;1.23;;;11.40;87.40;;;;;;4950131;28;20446;-73
2022/01/04 00:18:11;;;;;;;2.47;1.30;;;11.40;87.60;;;;;;4956955;28;20439;-73
2022/01/04 00:20:38;;;;;;;2.73;1.73;;;11.40;87.70;;;;;;4950636;28;20196;-73
2022/01/04 00:23:04;;;;;;;2.10;1.00;;;11.30;87.80;;;;;;4957448;28;20785;-73
2022/01/04 00:25:30;;;;;;;4.80;1.30;;;11.30;88.00;;;;;;4952979;28;20478;-73
2022/01/04 00:27:56;;;;;;;3.37;1.83;;;11.30;88.10;;;;;;4954064;28;20535;-73
2022/01/04 00:30:24;;;;;;;1.73;1.50;;;11.30;88.30;;;;;;4948550;29;20215;-75
2022/01/04 00:32:49;;;;;;;2.50;1.10;;;11.30;88.30;;;;;;4956055;28;20447;-74
2022/01/04 00:35:15;;;;;;;1.90;1.43;;;11.30;88.40;;;;;;4950625;28;20439;-73
2022/01/04 00:37:41;;;;;;;3.90;1.73;;;11.20;88.60;;;;;;4960687;28;20196;-75
2022/01/04 00:40:07;;;;;;;4.10;1.70;;;11.20;88.70;;;;;;4953711;28;20299;-75
2022/01/04 00:42:33;;;;;;;3.07;1.70;;;11.20;88.70;;;;;;4952722;28;20215;-74
2022/01/04 00:44:59;;;;;;;3.00;1.43;;;11.20;88.70;;;;;;4952811;29;20926;-75
2022/01/04 00:47:38;;;;;;;3.23;1.73;;;11.30;88.90;;;;;;4959219;28;20217;-76
2022/01/04 00:50:04;;;;;;;2.27;1.50;;;11.30;88.90;;;;;;4946063;28;20279;-74
2022/01/04 00:52:30;;;;;;;3.07;1.50;;;11.30;89.00;;;;;;4956026;28;20431;-75
2022/01/04 00:54:56;;;;;;;2.83;1.50;;;11.20;89.00;;;;;;4952472;28;20942;-74
2022/01/04 00:57:21;;;;;;;2.13;1.50;;;11.20;89.20;;;;;;4951981;28;20686;-75
2022/01/04 00:59:47;;;;;;;2.80;1.33;;;11.20;89.30;;;;;;4954304;28;20194;-76
2022/01/04 01:02:13;;;;;;;2.60;1.40;;;11.20;89.50;;;;;;4951735;28;20203;-75
2022/01/04 01:04:38;;;;;;;2.53;1.50;;;11.20;89.60;;;;;;4955701;28;20228;-74
2022/01/04 01:07:04;;;;;;;3.20;1.30;;;11.10;89.70;;;;;;4951568;28;20184;-77
2022/01/04 01:09:35;;;;;;;2.97;1.37;;;11.20;89.70;;;;;;4959755;28;20192;-76
2022/01/04 01:12:01;;;;;;;3.27;1.50;;;11.20;89.70;;;;;;4949824;29;20428;-73
2022/01/04 01:14:26;;;;;;;2.90;1.57;;;11.20;89.70;;;;;;4959184;28;20458;-74
2022/01/04 01:16:53;;;;;;;2.00;1.67;;;11.10;89.90;;;;;;4959569;28;20223;-74
2022/01/04 01:19:19;;;;;;;4.77;1.70;;;11.10;90.10;;;;;;4964470;28;20279;-73
2022/01/04 01:21:44;;;;;;;3.27;1.50;;;11.10;90.20;;;;;;4956778;28;20431;-74
2022/01/04 01:24:10;;;;;;;2.37;1.60;;;11.10;90.30;;;;;;4956002;28;20471;-75
2022/01/04 01:26:36;;;;;;;2.20;1.37;;;11.10;90.50;;;;;;4960890;28;20222;-74
2022/01/04 01:29:02;;;;;;;2.90;1.40;;;11.10;90.80;;;;;;4954025;28;20753;-75
2022/01/04 01:31:30;;;;;;;2.80;1.50;;;11.10;90.80;;;;;;4954625;28;20210;-76
2022/01/04 01:33:56;;;;;;;4.17;1.50;;;11.00;91.00;;;;;;4953778;28;20848;-74
2022/01/04 01:36:22;;;;;;;2.37;1.43;;;11.10;91.10;;;;;;4953421;28;20428;-76
2022/01/04 01:38:48;;;;;;;2.23;1.70;;;11.00;91.10;;;;;;4957714;28;20862;-75
2022/01/04 01:41:14;;;;;;;2.20;1.33;;;11.00;91.30;;;;;;4953903;28;20486;-75
2022/01/04 01:43:40;;;;;;;2.07;1.40;;;11.00;91.40;;;;;;4953744;28;20219;-74
2022/01/04 01:46:05;;;;;;;4.03;1.77;;;11.00;91.50;;;;;;4955992;28;20208;-74
2022/01/04 01:48:31;;;;;;;2.83;1.80;;;11.00;91.50;;;;;;4954772;28;20272;-75
2022/01/04 01:50:57;;;;;;;2.23;1.80;;;11.00;91.60;;;;;;4958350;28;20176;-74
2022/01/04 01:53:23;;;;;;;3.80;1.80;;;11.00;91.60;;;;;;4961397;28;20842;-75
2022/01/04 01:55:49;;;;;;;4.23;2.10;;;11.00;91.60;;;;;;4953394;28;20674;-75
2022/01/04 01:58:15;;;;;;;4.00;2.20;;;10.90;91.70;;;;;;4962983;28;20523;-75
2022/01/04 02:00:41;;;;;;;2.70;2.20;;;10.90;91.90;;;;;;4958525;28;20518;-74
2022/01/04 02:03:07;;;;;;;3.43;1.97;;;10.90;91.90;;;;;;4953754;28;20973;-76
2022/01/04 02:05:32;;;;;;;3.10;1.90;;;10.90;91.80;;;;;;4957085;28;20474;-75
2022/01/04 02:08:01;;;;;;;2.60;2.07;;;10.90;91.80;;;;;;4953592;28;20199;-75
2022/01/04 02:10:27;;;;;;;2.83;1.97;;;10.90;91.80;;;;;;4959350;28;20541;-74
2022/01/04 02:12:54;;;;;;;2.93;1.90;;;10.90;91.70;;;;;;4948921;28;20427;-74
2022/01/04 02:15:24;;;;;;;2.20;1.63;;;10.90;91.50;;;;;;4962025;28;20444;-73
2022/01/04 02:17:50;;;;;;;4.27;2.10;;;10.90;91.50;;;;;;4957599;28;20518;-73
2022/01/04 02:20:17;;;;;;;3.13;1.60;;;10.90;91.40;;;;;;4954031;28;20427;-74
2022/01/04 02:22:44;;;;;;;3.13;2.03;;;11.00;91.10;;;;;;4957565;28;20451;-73
2022/01/04 02:25:10;;;;;;;4.50;2.17;;;11.00;91.00;;;;;;4964477;28;20474;-73
2022/01/04 02:27:39;;;;;;;2.90;2.07;;;11.00;91.00;;;;;;4957620;28;20918;-74
2022/01/04 02:30:08;;;;;;;5.83;2.40;;;11.00;91.00;;;;;;4953792;28;20833;-75
2022/01/04 02:32:34;;;;;;;4.10;2.20;;;11.00;90.90;;;;;;4954141;28;20423;-74
2022/01/04 02:35:00;;;;;;;2.20;1.80;;;11.00;90.80;;;;;;4952885;28;20518;-75
2022/01/04 02:37:27;;;;;;;4.50;2.20;;;11.10;90.70;;;;;;4962055;28;20439;-74
2022/01/04 02:39:54;;;;;;;3.60;2.30;;;11.10;90.40;;;;;;4953891;28;20194;-75
2022/01/04 02:42:21;;;;;;;2.53;2.10;;;11.10;90.40;;;;;;4954822;28;20427;-73
2022/01/04 02:44:47;;;;;;;5.77;2.80;;;11.10;90.40;;;;;;4955698;28;20474;-74
2022/01/04 02:47:13;;;;;;;2.60;2.10;;;11.10;90.20;;;;;;4956585;28;20432;-74
2022/01/04 02:49:39;;;;;;;2.97;2.03;;;11.20;90.00;;;;;;4955079;28;20419;-74
2022/01/04 02:52:05;;;;;;;3.20;2.13;;;11.20;89.90;;;;;;4956016;28;20812;-73
2022/01/04 02:54:31;;;;;;;2.67;2.17;;;11.20;89.70;;;;;;4957715;28;20487;-74
2022/01/04 02:56:57;;;;;;;4.27;2.37;;;11.20;89.60;;;;;;4957246;28;20422;-74
2022/01/04 02:59:23;;;;;;;3.20;2.10;;;11.30;89.00;;;;;;4960042;28;20432;-74
2022/01/04 03:01:49;;;;;;;3.90;2.40;;;11.30;88.90;;;;;;4964079;28;20275;-74
2022/01/04 03:04:14;;;;;;;3.90;1.80;;;11.30;88.90;;;;;;4964082;28;20214;-76
2022/01/04 03:06:40;;;;;;;2.83;2.20;;;11.30;88.70;;;;;;4958273;28;20222;-75
2022/01/04 03:09:07;;;;;;;4.27;2.40;;;11.30;88.90;;;;;;4953857;28;20419;-75
2022/01/04 03:11:34;;;;;;;3.10;2.40;;;11.40;88.90;;;;;;4953263;28;20302;-75
2022/01/04 03:14:00;;;;;;;2.87;2.10;;;11.40;88.70;;;;;;4952881;28;20450;-74
2022/01/04 03:16:26;;;;;;;2.37;2.23;;;11.40;88.60;;;;;;4952788;28;20506;-73
2022/01/04 03:19:09;;;;;;;3.50;2.27;;;11.40;88.60;;;;;;4959247;28;20447;-74
2022/01/04 03:21:40;;;;;;;2.90;1.83;;;11.40;88.70;;;;;;4953347;28;20438;-74
2022/01/04 03:24:07;;;;;;;2.60;2.00;;;11.40;89.20;;;;;;4952792;28;20526;-74
2022/01/04 03:26:33;;;;;;;3.50;2.30;;;11.30;89.30;;;;;;4952930;28;20439;-76
2022/01/04 03:29:00;;;;;;;3.80;2.10;;;11.30;89.50;;;;;;4954790;28;20423;-74
2022/01/04 03:31:27;;;;;;;2.83;1.77;;;11.30;89.70;;;;;;4969527;28;20423;-74
2022/01/04 03:33:53;;;;;;;6.00;2.60;;;11.30;90.00;;;;;;4967841;28;20846;-75
2022/01/04 03:36:21;;;;;;;2.50;1.60;;;11.30;90.10;;;;;;4961073;28;20424;-74
2022/01/04 03:38:48;;;;;;;2.30;1.63;;;11.30;90.00;;;;;;4953116;28;20450;-79
2022/01/04 03:41:15;;;;;;;2.57;1.90;;;11.30;90.00;;;;;;4953368;28;20434;-75
2022/01/04 03:43:41;;;;;;;4.10;2.00;;;11.30;90.10;;;;;;4954375;28;20932;-75
2022/01/04 03:46:07;;;;;;;3.10;1.87;;;11.30;90.00;;;;;;4963356;28;20526;-75
2022/01/04 03:48:35;;;;;;;7.30;2.20;;;11.30;90.20;;;;;;4952543;28;20423;-75
2022/01/04 03:51:01;;;;;;;2.50;1.70;;;11.30;90.10;;;;;;4952168;28;20970;-75
2022/01/04 03:53:27;;;;;;;2.47;1.70;;;11.30;90.00;;;;;;4959877;28;20451;-74
2022/01/04 03:55:52;;;;;;;5.53;1.90;;;11.30;90.20;;;;;;4951071;28;20806;-74
2022/01/04 03:58:18;;;;;;;2.73;1.70;;;11.30;90.20;;;;;;4959376;28;20188;-76
2022/01/04 04:00:44;;;;;;;3.63;1.70;;;11.30;90.20;;;;;;4953029;28;20187;-75
2022/01/04 04:03:10;;;;;;;2.03;1.63;;;11.40;90.00;;;;;;4953315;28;20310;-74
2022/01/04 04:05:35;;;;;;;2.07;1.73;;;11.40;90.00;;;;;;4951376;28;20242;-74
2022/01/04 04:08:01;;;;;;;2.70;1.40;;;11.40;89.70;;;;;;4952505;28;20259;-74
2022/01/04 04:10:27;;;;;;;2.80;1.80;;;11.50;89.30;;;;;;4960449;28;20183;-75
2022/01/04 04:12:52;;;;;;;1.73;1.50;;;11.50;89.30;;;;;;4958882;28;20207;-76
2022/01/04 04:15:18;;;;;;;1.83;1.40;;;11.50;89.30;;;;;;4964234;28;20702;-75
2022/01/04 04:17:47;;;;;;;3.47;2.10;;;11.50;89.50;;;;;;4959906;28;20191;-75
2022/01/04 04:20:14;;;;;;;2.50;1.70;;;11.50;89.20;;;;;;4960027;28;20278;-75
2022/01/04 04:22:40;;;;;;;3.00;1.90;;;11.50;89.30;;;;;;4961800;28;20447;-75
2022/01/04 04:25:06;;;;;;;1.70;1.40;;;11.50;89.50;;;;;;4954714;28;20502;-75
2022/01/04 04:27:32;;;;;;;1.60;1.37;;;11.50;89.60;;;;;;4955123;28;20427;-76
2022/01/04 04:29:58;;;;;;;2.20;1.37;;;11.50;90.00;;;;;;4955148;28;20446;-75
2022/01/04 04:32:24;;;;;;;2.60;1.73;;;11.50;90.20;;;;;;4957605;28;20419;-76
2022/01/04 04:34:50;;;;;;;2.30;1.33;;;11.50;90.50;;;;;;4955585;28;20415;-76
2022/01/04 04:37:16;;;;;;;6.80;1.57;;;11.40;90.80;;;;;;4959475;28;20473;-76
2022/01/04 04:39:41;;;;;;;2.93;1.63;;;11.40;91.00;;;;;;4958839;28;20188;-77
2022/01/04 04:42:08;;;;;;;1.70;1.47;;;11.40;91.40;;;;;;4963729;28;20196;-76
2022/01/04 04:44:34;;;;;;;3.33;1.60;;;11.30;91.60;;;;;;4960487;28;20944;-75
2022/01/04 04:46:59;;;;;;;2.10;1.30;;;11.30;91.70;;;;;;4956638;28;20507;-75
2022/01/04 04:49:25;;;;;;;2.60;1.20;;;11.30;91.90;;;;;;4956799;28;20423;-75
2022/01/04 04:51:51;;;;;;;2.67;1.40;;;11.20;92.10;;;;;;4963494;28;21199;-76
2022/01/04 04:54:17;;;;;;;1.47;1.30;;;11.30;92.00;;;;;;4958594;28;20219;-77
2022/01/04 04:56:43;;;;;;;4.30;1.70;;;11.30;91.70;;;;;;4960171;28;20218;-77
2022/01/04 04:59:09;;;;;;;1.40;1.30;;;11.40;91.60;;;;;;4961713;28;20458;-78
2022/01/04 05:01:36;;;;;;;4.30;1.37;;;11.40;91.60;;;;;;4966440;28;20195;-76
2022/01/04 05:04:02;;;;;;;5.60;1.60;;;11.40;91.70;;;;;;4966752;28;20498;-76
2022/01/04 05:06:28;;;;;;;1.43;1.37;;;11.40;91.90;;;;;;4963371;28;20428;-77
2022/01/04 05:08:53;;;;;;;1.77;1.50;;;11.30;92.00;;;;;;4955368;29;20424;-75
2022/01/04 05:11:19;;;;;;;2.20;1.40;;;11.30;92.30;;;;;;4962479;28;20191;-76
2022/01/04 05:13:45;;;;;;;2.43;1.47;;;11.30;92.50;;;;;;4959969;28;20701;-75
2022/01/04 05:16:11;;;;;;;2.33;1.60;;;11.30;92.60;;;;;;4960009;29;21001;-76
2022/01/04 05:18:37;;;;;;;3.37;1.50;;;11.20;92.70;;;;;;4964517;28;20206;-75
2022/01/04 05:21:04;;;;;;;2.20;1.63;;;11.30;92.70;;;;;;4960172;28;20454;-75
2022/01/04 05:23:30;;;;;;;5.33;1.70;;;11.20;92.80;;;;;;4963312;28;20473;-75
2022/01/04 05:25:56;;;;;;;1.80;1.63;;;11.30;92.80;;;;;;4961165;28;20427;-75
2022/01/04 05:28:21;;;;;;;2.53;1.70;;;11.20;93.00;;;;;;4966283;28;21156;-75
2022/01/04 05:30:47;;;;;;;2.97;1.90;;;11.10;93.30;;;;;;4957757;29;20187;-76
2022/01/04 05:33:13;;;;;;;3.00;1.73;;;11.10;93.80;;;;;;4954735;28;20212;-75
2022/01/04 05:35:39;;;;;;;3.27;1.57;;;11.00;94.20;;;;;;4958440;28;20973;-75
2022/01/04 05:38:05;;;;;;;1.80;1.50;;;11.00;94.40;;;;;;4954500;28;20622;-76
2022/01/04 05:40:30;;;;;;;2.20;1.70;;;11.00;94.40;;;;;;4954152;29;20837;-76
2022/01/04 05:42:56;;;;;;;1.70;1.70;;;11.00;94.80;;;;;;4954551;28;20204;-75
2022/01/04 05:45:22;;;;;;;2.23;1.70;;;10.90;95.10;;;;;;4962693;28;20493;-74
2022/01/04 05:47:48;;;;;;;3.13;1.90;;;10.90;95.20;;;;;;4954796;28;20347;-75
2022/01/04 05:50:14;;;;;;;2.00;1.53;;;10.90;95.40;;;;;;4954207;28;20833;-75
2022/01/04 05:52:40;;;;;;;3.03;1.80;;;10.90;95.50;;;;;;4953876;28;21561;-77
2022/01/04 05:55:06;;;;;;;3.40;1.63;;;10.90;95.60;;;;;;4954456;28;20475;-75
2022/01/04 05:57:32;;;;;;;1.97;1.60;;;10.80;96.00;;;;;;4964382;28;20721;-76
2022/01/04 05:59:58;;;;;;;2.33;1.60;;;10.80;96.00;;;;;;4953639;28;20430;-77
2022/01/04 06:02:25;;;;;;;2.33;1.47;;;10.80;96.10;;;;;;4960432;28;20438;-74
2022/01/04 06:04:51;;;;;;;2.57;1.60;;;10.80;96.30;;;;;;4959717;28;20874;-76
2022/01/04 06:07:17;;;;;;;2.10;1.33;;;10.80;96.40;;;;;;4961960;28;20478;-76
2022/01/04 06:09:49;;;;;;;2.87;1.90;;;10.80;96.50;;;;;;4958795;28;20423;-77
2022/01/04 06:15:02;;;;;;;3.60;1.60;;;10.90;96.40;;;;;;4954348;29;20462;-76
2022/01/04 06:17:28;;;;;;;6.13;1.90;;;10.90;96.40;;;;;;4952969;28;20431;-76
2022/01/04 06:19:58;;;;;;;2.73;1.63;;;10.90;96.40;;;;;;4953801;29;20431;-75
2022/01/04 06:22:25;;;;;;;2.17;1.50;;;10.90;96.30;;;;;;4958654;28;20435;-74
2022/01/04 06:24:52;;;;;;;1.60;1.30;;;10.90;96.60;;;;;;4960488;28;20617;-75
2022/01/04 06:27:18;;;;;;;2.53;1.90;;;10.90;96.60;;;;;;4952888;29;20828;-74
2022/01/04 06:29:44;;;;;;;3.17;1.80;;;10.90;96.70;;;;;;4959171;28;20477;-75
2022/01/04 06:32:11;;;;;;;2.07;1.70;;;10.90;96.70;;;;;;4952632;28;20461;-76
2022/01/04 06:34:38;;;;;;;3.90;1.40;;;10.90;96.70;;;;;;4956998;28;20491;-75
2022/01/04 06:37:04;;;;;;;1.80;1.80;;;10.90;96.70;;;;;;4956841;29;20431;-75
2022/01/04 06:39:31;;;;;;;1.90;1.50;;;10.90;96.80;;;;;;4957841;29;20481;-76
2022/01/04 06:41:57;;;;;;;3.13;1.77;;;10.90;96.80;;;;;;4958515;28;20419;-76
2022/01/04 06:44:23;;;;;;;1.83;1.40;;;10.90;96.80;;;;;;4954342;28;20467;-75
2022/01/04 06:46:49;;;;;;;2.73;1.60;;;10.90;96.80;;;;;;4952353;29;20446;-75
2022/01/04 06:49:16;;;;;;;2.07;1.73;;;11.00;96.80;;;;;;4953929;28;20188;-76
2022/01/04 06:51:44;;;;;;;1.73;1.53;;;11.00;96.60;;;;;;4957719;28;21230;-76
2022/01/04 06:54:11;;;;;;;2.63;1.60;;;11.00;96.60;;;;;;4955174;28;20498;-76
2022/01/04 06:56:38;;;;;;;2.40;1.63;;;11.00;96.60;;;;;;4954537;28;20544;-77
2022/01/04 06:59:05;;;;;;;2.40;1.83;;;11.00;96.70;;;;;;4960193;28;20849;-76
2022/01/04 07:01:33;;;;;;;2.50;1.20;;;11.00;96.70;;;;;;4952479;29;20458;-75
2022/01/04 07:03:59;;;;;;;1.40;1.30;;;11.00;96.70;;;;;;4963169;28;20459;-75
2022/01/04 07:06:25;;;;;;;3.67;1.73;;;11.00;96.80;;;;;;4954494;28;20435;-76
2022/01/04 07:08:51;;;;;;;4.80;1.67;;;11.00;96.90;;;;;;4957979;28;20636;-76
2022/01/04 07:11:17;;;;;;;2.53;1.50;;;10.90;97.00;;;;;;4961848;28;20184;-74
2022/01/04 07:13:42;;;;;;;2.00;1.50;;;10.90;97.10;;;;;;4959047;28;20279;-76
2022/01/04 07:16:08;;;;;;;4.47;1.93;;;10.90;97.20;;;;;;4955653;28;20278;-75
2022/01/04 07:18:34;;;;;;;2.70;1.60;;;10.90;97.20;;;;;;4956791;28;20215;-75
2022/01/04 07:21:00;;;;;;;3.87;1.80;;;10.90;97.30;;;;;;4962903;28;20339;-76
2022/01/04 07:23:26;;;;;;;1.87;1.47;;;10.90;97.40;;;;;;4959558;28;20532;-75
2022/01/04 07:25:52;;;;;;;2.27;1.50;;;10.90;97.50;;;;;;4954494;28;20211;-77
2022/01/04 07:28:18;;;;;;;4.27;1.70;;;10.90;97.50;;;;;;4959464;28;20642;-75
2022/01/04 07:30:44;;;;;;;4.17;1.50;;;10.90;97.50;;;;;;4953631;28;20176;-76
2022/01/04 07:33:11;;;;;;;2.13;1.47;;;10.90;97.50;;;;;;4963989;28;20821;-74
2022/01/04 07:35:37;;;;;;;4.20;1.33;;;11.00;97.70;;;;;;4961011;28;20436;-75
2022/01/04 07:38:03;;;;;;;2.93;1.50;;;11.00;97.70;;;;;;4955647;28;20454;-75
2022/01/04 07:40:29;;;;;;;2.43;1.47;;;11.00;97.70;;;;;;4954548;28;20980;-74
2022/01/04 07:42:59;;;;;;;3.67;1.30;;;11.00;97.50;;;;;;4958505;28;20314;-76
2022/01/04 07:45:29;;;;;;;5.47;1.70;;;11.10;97.50;;;;;;4955492;28;20462;-76
2022/01/04 07:47:56;;;;;;;1.87;1.50;;;11.10;97.50;;;;;;4944914;29;20554;-75
2022/01/04 07:50:22;;;;;;;3.23;1.40;;;11.10;97.50;;;;;;4963037;28;20426;-75
2022/01/04 07:52:48;;;;;;;2.00;1.40;;;11.20;97.50;;;;;;4955477;28;21370;-75
2022/01/04 07:55:14;;;;;;;2.13;1.27;;;11.30;97.20;;;;;;4955063;28;20545;-75
2022/01/04 07:57:41;;;;;;;2.30;1.43;;;11.40;96.90;;;;;;4957854;28;20259;-75
2022/01/04 08:00:08;;;;;;;4.90;1.50;;;11.50;96.60;;;;;;4952391;28;20191;-72
2022/01/04 08:02:34;;;;;;;5.00;1.70;;;11.60;96.10;;;;;;4955768;28;20462;-73
2022/01/04 08:05:00;;;;;;;4.67;2.30;;;11.80;95.60;;;;;;4950639;29;20490;-74
2022/01/04 08:07:26;;;;;;;2.30;1.30;;;11.90;95.30;;;;;;4952521;29;20235;-71
2022/01/04 08:09:52;;;;;;;2.03;1.47;;;12.00;94.70;;;;;;4951015;28;20176;-73
2022/01/04 08:12:19;;;;;;;1.67;1.30;;;12.10;94.50;;;;;;4952665;28;20251;-76
2022/01/04 08:14:45;;;;;;;3.00;1.40;;;12.20;94.10;;;;;;4952260;28;20451;-75
2022/01/04 08:17:11;;;;;;;2.87;1.50;;;12.20;93.90;;;;;;4953094;28;20483;-75
2022/01/04 08:19:37;;;;;;;1.37;1.10;;;12.30;93.60;;;;;;4952802;28;20468;-73
2022/01/04 08:22:03;;;;;;;2.40;1.20;;;12.30;93.60;;;;;;4952864;29;20470;-73
2022/01/04 08:24:29;;;;;;;1.93;1.40;;;12.30;93.80;;;;;;4955387;28;20247;-74
2022/01/04 08:26:55;;;;;;;1.67;1.20;;;12.30;93.60;;;;;;4953603;29;20846;-74
2022/01/04 08:29:21;;;;;;;2.30;1.23;;;12.40;93.60;;;;;;4954936;29;20458;-73
2022/01/04 08:31:47;;;;;;;2.03;1.20;;;12.40;93.50;;;;;;4962798;28;20584;-74
2022/01/04 08:34:13;;;;;;;3.23;2.03;;;12.40;93.60;;;;;;4954295;29;20904;-74
2022/01/04 08:36:39;;;;;;;2.30;1.20;;;12.40;93.40;;;;;;4955595;28;20932;-73
2022/01/04 08:39:06;;;;;;;2.00;1.27;;;12.40;93.40;;;;;;4954686;28;20439;-72
2022/01/04 08:41:32;;;;;;;2.00;1.27;;;12.40;93.40;;;;;;4952218;28;20435;-72
2022/01/04 08:43:57;;;;;;;2.60;1.53;;;12.50;93.30;;;;;;4955192;28;20467;-73
2022/01/04 08:46:24;;;;;;;1.50;1.23;;;12.50;93.00;;;;;;4951872;28;20531;-73
2022/01/04 08:48:50;;;;;;;2.30;1.37;;;12.50;92.90;;;;;;4952235;28;20176;-75
2022/01/04 08:51:16;;;;;;;6.03;1.70;;;12.60;92.80;;;;;;4956486;28;20431;-73
2022/01/04 08:53:42;;;;;;;4.37;1.60;;;12.60;92.50;;;;;;4962810;28;20211;-75
2022/01/04 08:56:08;;;;;;;2.70;1.50;;;12.60;92.40;;;;;;4952824;28;20757;-75
2022/01/04 08:58:34;;;;;;;2.03;1.30;;;12.70;92.20;;;;;;4958115;28;20497;-74
2022/01/04 09:01:02;;;;;;;1.77;1.20;;;12.70;91.90;;;;;;4962681;28;20246;-73
2022/01/04 09:03:28;;;;;;;2.57;1.13;;;12.80;91.80;;;;;;4959284;28;20232;-73
2022/01/04 09:05:55;;;;;;;1.30;1.20;;;12.90;91.30;;;;;;4964529;28;20893;-73
2022/01/04 09:08:20;;;;;;;1.47;1.30;;;12.90;91.10;;;;;;4963136;28;20419;-72
2022/01/04 09:10:46;;;;;;;4.10;1.97;;;12.90;91.10;;;;;;4953770;29;20511;-74
2022/01/04 09:13:19;;;;;;;3.13;1.70;;;13.00;91.00;;;;;;4956261;29;20208;-75
2022/01/04 09:18:48;;;;;;;2.60;1.70;;;13.00;90.80;;;;;;4957666;28;20457;-73
2022/01/04 09:21:20;;;;;;;5.00;1.90;;;13.00;91.00;;;;;;4958988;28;20424;-74
2022/01/04 09:23:47;;;;;;;2.20;1.40;;;13.00;91.00;;;;;;4954044;28;20443;-74
2022/01/04 09:26:15;;;;;;;2.70;1.40;;;12.90;91.40;;;;;;4955153;28;20514;-74
2022/01/04 09:28:42;;;;;;;1.90;1.40;;;12.90;91.40;;;;;;4959733;28;20974;-75
2022/01/04 09:31:08;;;;;;;5.47;1.80;;;12.80;91.70;;;;;;4956985;28;20443;-75
2022/01/04 09:33:35;;;;;;;2.20;1.23;;;12.70;91.90;;;;;;4953475;28;20448;-74
2022/01/04 09:36:01;;;;;;;2.30;1.80;;;12.70;92.20;;;;;;4961502;28;20506;-74
2022/01/04 09:38:26;;;;;;;1.37;1.20;;;12.60;92.70;;;;;;4952935;28;20514;-74
2022/01/04 09:40:54;;;;;;;2.03;1.20;;;12.50;93.20;;;;;;4952793;28;20208;-73
2022/01/04 09:43:21;;;;;;;2.00;1.37;;;12.40;93.50;;;;;;4952386;28;20502;-74
2022/01/04 09:45:50;;;;;;;4.33;1.67;;;12.30;93.60;;;;;;4953108;28;20470;-73
2022/01/04 09:48:15;;;;;;;2.80;1.53;;;12.40;93.70;;;;;;4957913;28;21144;-74
2022/01/04 09:50:43;;;;;;;2.30;1.60;;;12.30;93.90;;;;;;4952582;28;20483;-73
2022/01/04 09:53:12;;;;;;;1.70;1.30;;;12.30;94.00;;;;;;4952200;28;20475;-74
2022/01/04 09:55:42;;;;;;;2.67;1.50;;;12.40;93.70;;;;;;4952237;28;20838;-74
2022/01/04 09:58:08;;;;;;;4.67;1.37;;;12.40;93.60;;;;;;4953926;28;20919;-74
2022/01/04 10:00:34;;;;;;;1.57;1.20;;;12.50;93.60;;;;;;4954629;28;20436;-74
2022/01/04 10:03:26;;;;;;;3.17;1.47;;;12.40;93.90;;;;;;4953690;28;20450;-74
2022/01/04 10:06:03;;;;;;;1.27;1.23;;;12.40;93.90;;;;;;4955503;28;20477;-73
2022/01/04 10:08:29;;;;;;;2.73;1.43;;;12.40;93.90;;;;;;4963188;28;21326;-74
2022/01/04 10:11:08;;;;;;;2.10;1.43;;;12.50;93.70;;;;;;4965376;28;20499;-72
2022/01/04 10:13:34;;;;;;;4.30;1.93;;;12.50;93.70;;;;;;4958026;28;20204;-73
2022/01/04 10:16:00;;;;;;;1.90;1.33;;;12.50;93.50;;;;;;4957810;28;20428;-74
2022/01/04 10:18:28;;;;;;;3.00;2.00;;;12.50;93.50;;;;;;4961709;28;20423;-73
2022/01/04 10:21:02;;;;;;;3.37;1.70;;;12.50;93.70;;;;;;4946090;28;20506;-75
2022/01/04 10:23:29;;;;;;;2.70;1.63;;;12.50;93.70;;;;;;4956546;28;20445;-75
2022/01/04 10:26:06;;;;;;;2.77;1.60;;;12.50;93.60;;;;;;4959333;28;20849;-74
2022/01/04 10:28:34;;;;;;;2.40;1.70;;;12.50;93.30;;;;;;4952117;29;21264;-76
2022/01/04 10:31:06;;;;;;;2.60;1.83;;;12.50;93.30;;;;;;4953296;28;20451;-74
2022/01/04 10:33:34;;;;;;;2.93;1.83;;;12.60;92.80;;;;;;4957083;28;20461;-75
2022/01/04 10:36:01;;;;;;;1.47;1.40;;;12.60;92.50;;;;;;4954109;28;20419;-74
2022/01/04 10:38:27;;;;;;;4.03;1.60;;;12.70;92.10;;;;;;4957106;28;20887;-75
2022/01/04 10:41:07;;;;;;;3.40;2.00;;;12.80;91.70;;;;;;4951728;28;20477;-75
2022/01/04 10:44:07;;;;;;;5.73;1.77;;;12.80;91.10;;;;;;4960905;28;20635;-74
2022/01/04 10:46:45;;;;;;;3.50;2.17;;;12.80;91.20;;;;;;4953611;28;20993;-75
2022/01/04 10:49:20;;;;;;;2.80;1.87;;;12.90;91.10;;;;;;4968925;28;20505;-75
2022/01/04 10:52:03;;;;;;;2.50;2.00;;;12.90;90.70;;;;;;4956651;28;20545;-74
2022/01/04 10:54:29;;;;;;;3.20;1.70;;;12.90;90.60;;;;;;4955368;28;20518;-77
2022/01/04 10:57:04;;;;;;;2.90;1.70;;;12.90;90.70;;;;;;4953047;29;20420;-75
2022/01/04 10:59:30;;;;;;;2.23;1.60;;;12.90;90.80;;;;;;4958000;28;20198;-76
2022/01/04 11:01:56;;;;;;;4.07;1.90;;;12.90;90.80;;;;;;4958013;28;20442;-74
2022/01/04 11:04:22;;;;;;;3.90;2.50;;;12.90;91.10;;;;;;4964336;28;20220;-74
2022/01/04 11:06:49;;;;;;;2.57;1.97;;;12.90;90.80;;;;;;4952909;28;20930;-75
2022/01/04 11:09:16;;;;;;;2.53;2.00;;;12.90;90.80;;;;;;4954788;28;20191;-74
2022/01/04 11:11:42;;;;;;;8.87;2.10;;;12.90;91.00;;;;;;4959606;28;20415;-74
2022/01/04 11:14:10;;;;;;;2.77;1.97;;;13.00;90.60;;;;;;4955486;28;20597;-75
2022/01/04 11:16:36;;;;;;;3.17;1.97;;;13.00;90.50;;;;;;4955205;28;20427;-75
2022/01/04 11:19:03;;;;;;;3.37;2.27;;;13.10;90.20;;;;;;4957091;28;21142;-75
2022/01/04 11:21:36;;;;;;;3.20;1.90;;;13.20;89.70;;;;;;4957006;28;20202;-75
2022/01/04 11:24:07;;;;;;;2.80;1.93;;;13.20;89.70;;;;;;4959826;28;20471;-74
2022/01/04 11:26:33;;;;;;;2.20;1.60;;;13.20;89.00;;;;;;4955202;28;20510;-74
2022/01/04 11:29:00;;;;;;;4.70;2.27;;;13.20;89.50;;;;;;4960080;28;20446;-75
2022/01/04 11:31:37;;;;;;;3.30;2.03;;;13.10;89.70;;;;;;4955912;28;20423;-74
2022/01/04 11:34:12;;;;;;;4.33;2.10;;;13.10;90.40;;;;;;4950074;28;20442;-75
2022/01/04 11:36:43;;;;;;;2.30;1.87;;;13.00;90.70;;;;;;4952285;29;20435;-74
2022/01/04 11:39:39;;;;;;;4.03;2.00;;;12.90;91.10;;;;;;4956333;28;20510;-76
2022/01/04 11:42:31;;;;;;;3.13;2.37;;;12.80;91.50;;;;;;4960983;28;20415;-76
2022/01/04 11:44:58;;;;;;;2.67;2.40;;;12.70;91.90;;;;;;4953930;28;20467;-75
2022/01/04 11:47:30;;;;;;;4.33;1.80;;;12.70;92.00;;;;;;4959765;28;20420;-76
2022/01/04 11:50:10;;;;;;;2.83;1.83;;;12.70;92.20;;;;;;4967024;28;20431;-76
2022/01/04 11:52:43;;;;;;;2.43;1.80;;;12.60;92.50;;;;;;4957746;28;20469;-76
2022/01/04 11:55:26;;;;;;;3.77;2.50;;;12.60;92.70;;;;;;4960798;28;20455;-75
2022/01/04 11:57:54;;;;;;;3.47;2.30;;;12.60;92.90;;;;;;4964663;28;20423;-75
2022/01/04 12:00:30;;;;;;;5.40;2.47;;;12.60;93.00;;;;;;4957699;28;20459;-75
2022/01/04 12:03:11;;;;;;;4.50;2.20;;;12.50;93.30;;;;;;4954531;28;20439;-74
2022/01/04 12:05:41;;;;;;;4.30;2.30;;;12.50;93.30;;;;;;4955455;28;20503;-75
2022/01/04 12:08:18;;;;;;;3.73;2.30;;;12.50;93.50;;;;;;4950435;28;20499;-75
2022/01/04 12:10:45;;;;;;;5.30;2.27;;;12.50;93.60;;;;;;4961746;28;20426;-73
2022/01/04 12:13:19;;;;;;;4.47;2.63;;;12.50;93.70;;;;;;4963837;28;20546;-75
2022/01/04 12:15:53;;;;;;;6.50;2.60;;;12.50;93.50;;;;;;4951299;29;20806;-74
2022/01/04 12:18:30;;;;;;;5.63;2.40;;;12.50;93.60;;;;;;4962649;28;20968;-74
2022/01/04 12:20:59;;;;;;;3.10;2.30;;;12.50;93.70;;;;;;4964026;28;20825;-77
2022/01/04 12:23:31;;;;;;;3.20;2.30;;;12.50;93.40;;;;;;4960372;28;20463;-77
2022/01/04 12:26:05;;;;;;;4.63;2.90;;;12.50;93.50;;;;;;4942272;29;20841;-77
2022/01/04 12:28:31;;;;;;;3.93;2.43;;;12.50;93.60;;;;;;4957463;28;20710;-75
2022/01/04 12:31:20;;;;;;;4.63;2.43;;;12.40;93.70;;;;;;4960678;28;20954;-74
2022/01/04 12:34:00;;;;;;;3.70;2.40;;;12.40;93.80;;;;;;4945172;28;20215;-75
2022/01/04 12:36:33;;;;;;;6.30;2.93;;;12.40;94.00;;;;;;4965233;28;20433;-75
2022/01/04 12:39:12;;;;;;;5.90;2.97;;;12.30;93.90;;;;;;4952958;28;20416;-74
2022/01/04 12:41:40;;;;;;;3.70;2.30;;;12.30;93.80;;;;;;4965230;28;20424;-76
2022/01/04 12:44:08;;;;;;;5.10;2.30;;;12.30;93.80;;;;;;4960424;28;20894;-75
2022/01/04 12:46:42;;;;;;;2.60;2.23;;;12.30;93.80;;;;;;4963080;28;20466;-75
2022/01/04 12:49:19;;;;;;;3.77;2.13;;;12.30;93.60;;;;;;4965344;28;20429;-75
2022/01/04 12:51:47;;;;;;;5.20;2.60;;;12.40;93.50;;;;;;4948265;28;20556;-75
2022/01/04 12:54:18;;;;;;;5.03;2.43;;;12.40;93.60;;;;;;4953445;28;20471;-74
2022/01/04 12:56:46;;;;;;;6.50;2.83;;;12.40;93.30;;;;;;4959699;28;20457;-74
2022/01/04 12:59:23;;;;;;;5.00;2.43;;;12.40;93.30;;;;;;4959502;28;20494;-76